createdAt,value
2022-08-01T00:01:52.308Z,20.40
2022-08-01T00:04:38.520Z,20.40
2022-08-01T00:07:24.618Z,20.40
2022-08-01T00:10:12.963Z,20.40
2022-08-01T00:12:58.964Z,20.40
2022-08-01T00:15:54.247Z,20.40
2022-08-01T00:18:40.565Z,20.40
2022-08-01T00:21:26.586Z,20.30
2022-08-01T00:24:14.399Z,20.30
2022-08-01T00:27:01.735Z,20.30
2022-08-01T00:30:11.471Z,20.30
2022-08-01T00:32:53.967Z,20.20
2022-08-01T00:35:40.268Z,20.10
2022-08-01T00:38:26.431Z,20.00
2022-08-01T00:41:13.392Z,20.00
2022-08-01T00:44:02.614Z,19.90
2022-08-01T00:46:48.686Z,19.90
2022-08-01T00:49:35.480Z,19.80
2022-08-01T00:52:21.768Z,19.80
2022-08-01T00:55:10.243Z,19.70
2022-08-01T00:58:02.401Z,19.60
2022-08-01T01:00:53.843Z,19.60
2022-08-01T01:03:58.779Z,19.50
2022-08-01T01:07:07.379Z,19.50
2022-08-01T01:10:14.944Z,19.50
2022-08-01T01:13:24.381Z,19.40
2022-08-01T01:16:15.349Z,19.50
2022-08-01T01:19:06.284Z,19.50
2022-08-01T01:21:55.358Z,19.50
2022-08-01T01:24:56.665Z,19.50
2022-08-01T01:28:03.162Z,19.50
2022-08-01T01:30:53.766Z,19.50
2022-08-01T01:33:47.417Z,19.60
2022-08-01T01:36:34.939Z,19.60
2022-08-01T01:39:22.496Z,19.60
2022-08-01T01:42:09.372Z,19.60
2022-08-01T01:45:01.269Z,19.60
2022-08-01T01:47:48.821Z,19.60
2022-08-01T01:50:36.722Z,19.70
2022-08-01T01:53:24.444Z,19.70
2022-08-01T01:56:12.371Z,19.70
2022-08-01T01:59:03.078Z,19.70
2022-08-01T02:02:08.242Z,19.70
2022-08-01T02:04:55.273Z,19.70
2022-08-01T02:07:48.487Z,19.70
2022-08-01T02:10:36.365Z,19.70
2022-08-01T02:13:23.198Z,19.60
2022-08-01T02:16:12.299Z,19.60
2022-08-01T02:18:58.789Z,19.60
2022-08-01T02:21:56.078Z,19.50
2022-08-01T02:24:44.626Z,19.50
2022-08-01T02:27:38.455Z,19.40
2022-08-01T02:30:26.507Z,19.30
2022-08-01T02:33:16.189Z,19.30
2022-08-01T02:36:30.882Z,19.20
2022-08-01T02:39:12.928Z,19.10
2022-08-01T02:42:05.942Z,19.00
2022-08-01T02:44:54.959Z,18.90
2022-08-01T02:47:43.276Z,18.90
2022-08-01T02:50:31.992Z,18.80
2022-08-01T02:53:21.770Z,18.70
2022-08-01T02:56:09.854Z,18.70
2022-08-01T02:58:56.348Z,18.60
2022-08-01T03:01:44.504Z,18.60
2022-08-01T03:04:33.511Z,18.50
2022-08-01T03:07:21.017Z,18.40
2022-08-01T03:10:10.772Z,18.30
2022-08-01T03:12:58.152Z,18.30
2022-08-01T03:15:45.364Z,18.20
2022-08-01T03:18:32.424Z,18.20
2022-08-01T03:21:21.425Z,18.20
2022-08-01T03:24:08.915Z,18.20
2022-08-01T03:26:57.161Z,18.20
2022-08-01T03:29:45.436Z,18.20
2022-08-01T03:32:32.339Z,18.20
2022-08-01T03:35:18.542Z,18.10
2022-08-01T03:38:17.246Z,18.10
2022-08-01T03:41:22.342Z,18.10
2022-08-01T03:44:16.468Z,18.10
2022-08-01T03:47:05.192Z,18.10
2022-08-01T03:49:53.593Z,18.10
2022-08-01T03:52:42.723Z,18.00
2022-08-01T03:55:30.934Z,18.00
2022-08-01T03:58:17.978Z,18.00
2022-08-01T04:01:06.516Z,17.90
2022-08-01T04:03:53.083Z,17.90
2022-08-01T04:06:40.592Z,17.80
2022-08-01T04:09:26.725Z,17.80
2022-08-01T04:12:12.735Z,17.90
2022-08-01T04:14:59.603Z,17.90
2022-08-01T04:17:45.531Z,17.90
2022-08-01T04:20:31.667Z,18.00
2022-08-01T04:23:21.798Z,18.00
2022-08-01T04:26:09.975Z,18.10
2022-08-01T04:28:57.190Z,18.10
2022-08-01T04:31:46.381Z,18.20
2022-08-01T04:34:34.499Z,18.20
2022-08-01T04:37:20.808Z,18.20
2022-08-01T04:40:09.519Z,18.20
2022-08-01T04:42:56.328Z,18.20
2022-08-01T04:45:44.732Z,18.20
2022-08-01T04:48:32.644Z,18.20
2022-08-01T04:51:22.873Z,18.10
2022-08-01T04:54:09.130Z,18.10
2022-08-01T04:57:01.001Z,18.20
2022-08-01T04:59:47.259Z,18.20
2022-08-01T05:02:33.924Z,18.20
2022-08-01T05:05:21.942Z,18.20
2022-08-01T05:08:08.011Z,18.10
2022-08-01T05:10:54.236Z,18.10
2022-08-01T05:13:40.757Z,18.10
2022-08-01T05:16:28.710Z,18.10
2022-08-01T05:19:14.856Z,18.10
2022-08-01T05:22:06.205Z,18.10
2022-08-01T05:24:53.797Z,18.20
2022-08-01T05:27:42.778Z,18.30
2022-08-01T05:30:28.998Z,18.30
2022-08-01T05:33:14.860Z,18.40
2022-08-01T05:36:00.851Z,18.50
2022-08-01T05:38:47.237Z,18.50
2022-08-01T05:41:35.578Z,18.60
2022-08-01T05:44:22.151Z,18.60
2022-08-01T05:47:08.215Z,18.70
2022-08-01T05:49:54.186Z,18.70
2022-08-01T05:52:40.163Z,18.80
2022-08-01T05:55:26.579Z,18.80
2022-08-01T05:58:12.758Z,18.90
2022-08-01T06:00:59.898Z,18.90
2022-08-01T06:03:46.218Z,19.00
2022-08-01T06:06:32.256Z,19.00
2022-08-01T06:09:18.318Z,19.10
2022-08-01T06:12:04.980Z,19.20
2022-08-01T06:14:51.407Z,19.40
2022-08-01T06:17:40.667Z,19.40
2022-08-01T06:20:26.978Z,19.50
2022-08-01T06:23:31.691Z,19.70
2022-08-01T06:26:20.580Z,19.80
2022-08-01T06:29:06.947Z,19.90
2022-08-01T06:31:55.985Z,20.00
2022-08-01T06:34:42.308Z,20.10
2022-08-01T06:37:32.763Z,20.10
2022-08-01T06:40:19.013Z,20.10
2022-08-01T06:43:05.348Z,20.10
2022-08-01T06:45:51.488Z,20.10
2022-08-01T06:48:40.292Z,20.20
2022-08-01T06:51:27.102Z,20.20
2022-08-01T06:54:13.419Z,20.20
2022-08-01T06:56:59.720Z,20.20
2022-08-01T06:59:52.004Z,20.20
2022-08-01T07:02:42.085Z,20.30
2022-08-01T07:05:29.049Z,20.40
2022-08-01T07:08:26.700Z,20.40
2022-08-01T07:11:12.949Z,20.50
2022-08-01T07:14:04.329Z,20.50
2022-08-01T07:16:50.892Z,20.50
2022-08-01T07:19:38.528Z,20.60
2022-08-01T07:22:25.011Z,20.60
2022-08-01T07:25:13.225Z,20.70
2022-08-01T07:27:59.516Z,20.70
2022-08-01T07:30:45.459Z,20.70
2022-08-01T07:33:48.749Z,20.80
2022-08-01T07:36:35.416Z,20.90
2022-08-01T07:39:22.342Z,21.00
2022-08-01T07:42:08.870Z,21.10
2022-08-01T07:44:55.411Z,21.20
2022-08-01T07:47:41.587Z,21.20
2022-08-01T07:50:27.708Z,21.30
2022-08-01T07:53:16.245Z,21.40
2022-08-01T07:56:03.605Z,21.40
2022-08-01T07:58:49.429Z,21.40
2022-08-01T08:01:35.599Z,21.60
2022-08-01T08:04:22.348Z,21.70
2022-08-01T08:07:08.856Z,21.70
2022-08-01T08:09:56.319Z,21.80
2022-08-01T08:12:44.080Z,21.90
2022-08-01T08:15:30.540Z,22.00
2022-08-01T08:18:17.342Z,22.00
2022-08-01T08:21:06.930Z,22.10
2022-08-01T08:24:11.825Z,22.20
2022-08-01T08:27:01.971Z,22.20
2022-08-01T08:29:48.063Z,22.30
2022-08-01T08:32:40.706Z,22.30
2022-08-01T08:35:53.407Z,22.40
2022-08-01T08:38:35.048Z,22.50
2022-08-01T08:41:22.195Z,22.40
2022-08-01T08:44:10.907Z,22.50
2022-08-01T08:46:59.201Z,22.50
2022-08-01T08:49:45.680Z,22.50
2022-08-01T08:52:39.219Z,22.50
2022-08-01T08:55:29.242Z,22.50
2022-08-01T08:58:19.393Z,22.60
2022-08-01T09:01:10.294Z,22.60
2022-08-01T09:04:03.671Z,22.70
2022-08-01T09:06:49.767Z,22.70
2022-08-01T09:09:35.850Z,22.70
2022-08-01T09:12:28.216Z,22.80
2022-08-01T09:15:14.654Z,22.90
2022-08-01T09:18:03.599Z,23.00
2022-08-01T09:20:49.458Z,23.10
2022-08-01T09:23:55.778Z,23.30
2022-08-01T09:26:50.129Z,23.60
2022-08-01T09:29:38.143Z,23.80
2022-08-01T09:32:25.994Z,23.80
2022-08-01T09:35:30.114Z,23.90
2022-08-01T09:38:22.258Z,23.90
2022-08-01T09:41:09.445Z,23.90
2022-08-01T09:44:00.558Z,23.90
2022-08-01T09:47:07.877Z,23.90
2022-08-01T09:49:59.194Z,23.90
2022-08-01T09:52:54.866Z,23.90
2022-08-01T09:55:48.510Z,23.90
2022-08-01T09:58:59.538Z,24.00
2022-08-01T10:01:49.682Z,24.20
2022-08-01T10:04:36.141Z,24.30
2022-08-01T10:07:42.559Z,24.40
2022-08-01T10:10:31.647Z,24.50
2022-08-01T10:13:17.888Z,24.50
2022-08-01T10:16:06.417Z,24.60
2022-08-01T10:18:54.522Z,24.70
2022-08-01T10:21:47.668Z,24.80
2022-08-01T10:24:47.290Z,24.80
2022-08-01T10:27:39.428Z,24.90
2022-08-01T10:30:26.418Z,25.00
2022-08-01T10:33:15.233Z,25.00
2022-08-01T10:36:08.462Z,25.00
2022-08-01T10:38:56.425Z,24.90
2022-08-01T10:41:43.273Z,24.80
2022-08-01T10:44:31.849Z,24.70
2022-08-01T10:47:52.276Z,24.70
2022-08-01T10:50:41.710Z,24.70
2022-08-01T10:53:31.681Z,24.60
2022-08-01T10:56:40.825Z,24.80
2022-08-01T10:59:50.410Z,25.00
2022-08-01T11:02:45.577Z,25.10
2022-08-01T11:05:36.408Z,25.10
2022-08-01T11:08:29.148Z,25.10
2022-08-01T11:11:16.086Z,25.00
2022-08-01T11:14:03.042Z,25.00
2022-08-01T11:16:49.537Z,25.10
2022-08-01T11:20:06.643Z,25.30
2022-08-01T11:23:05.151Z,25.50
2022-08-01T11:26:05.894Z,25.70
2022-08-01T11:29:21.551Z,25.80
2022-08-01T11:32:25.922Z,26.00
2022-08-01T11:35:11.916Z,26.10
2022-08-01T11:38:18.271Z,26.20
2022-08-01T11:41:23.587Z,26.20
2022-08-01T11:44:30.601Z,26.30
2022-08-01T11:47:16.863Z,26.40
2022-08-01T11:50:06.268Z,26.50
2022-08-01T11:53:05.581Z,26.60
2022-08-01T11:55:54.265Z,26.60
2022-08-01T11:58:40.614Z,26.60
2022-08-01T12:01:29.362Z,26.70
2022-08-01T12:04:15.374Z,26.80
2022-08-01T12:07:16.371Z,26.80
2022-08-01T12:10:09.119Z,26.90
2022-08-01T12:13:00.114Z,27.00
2022-08-01T12:15:47.179Z,27.10
2022-08-01T12:18:42.557Z,27.10
2022-08-01T12:21:31.279Z,27.20
2022-08-01T12:24:23.827Z,27.20
2022-08-01T12:27:11.268Z,27.30
2022-08-01T12:29:59.117Z,27.40
2022-08-01T12:32:47.639Z,27.50
2022-08-01T12:35:35.164Z,27.60
2022-08-01T12:38:27.841Z,27.70
2022-08-01T12:41:17.851Z,27.70
2022-08-01T12:44:13.773Z,27.60
2022-08-01T12:47:01.649Z,27.60
2022-08-01T12:49:49.014Z,27.70
2022-08-01T12:52:35.523Z,27.70
2022-08-01T12:55:25.268Z,27.80
2022-08-01T12:58:21.519Z,27.70
2022-08-01T13:01:13.356Z,27.60
2022-08-01T13:04:09.769Z,27.70
2022-08-01T13:06:56.561Z,27.80
2022-08-01T13:09:51.498Z,27.90
2022-08-01T13:12:38.243Z,27.90
2022-08-01T13:15:27.288Z,27.80
2022-08-01T13:18:30.894Z,27.70
2022-08-01T13:21:52.444Z,27.60
2022-08-01T13:24:36.916Z,27.50
2022-08-01T13:27:32.015Z,27.40
2022-08-01T13:30:21.586Z,27.40
2022-08-01T13:33:08.412Z,27.50
2022-08-01T13:35:56.215Z,27.50
2022-08-01T13:39:01.426Z,27.60
2022-08-01T13:41:48.269Z,27.70
2022-08-01T13:44:34.816Z,27.90
2022-08-01T13:47:31.109Z,28.00
2022-08-01T13:50:19.324Z,28.00
2022-08-01T13:53:05.559Z,28.20
2022-08-01T13:55:52.166Z,28.40
2022-08-01T13:58:39.383Z,28.70
2022-08-01T14:01:28.078Z,28.80
2022-08-01T14:04:17.513Z,29.00
2022-08-01T14:07:10.605Z,29.10
2022-08-01T14:10:18.767Z,29.10
2022-08-01T14:13:11.677Z,29.20
2022-08-01T14:16:02.141Z,29.40
2022-08-01T14:18:48.643Z,29.40
2022-08-01T14:21:35.355Z,29.20
2022-08-01T14:24:25.398Z,29.20
2022-08-01T14:27:13.867Z,29.40
2022-08-01T14:30:03.839Z,29.70
2022-08-01T14:32:51.823Z,29.90
2022-08-01T14:36:05.610Z,30.00
2022-08-01T14:38:48.069Z,30.30
2022-08-01T14:41:34.116Z,30.50
2022-08-01T14:44:20.107Z,30.70
2022-08-01T14:47:15.894Z,30.70
2022-08-01T14:50:10.959Z,30.60
2022-08-01T14:52:58.328Z,30.50
2022-08-01T14:55:47.733Z,30.60
2022-08-01T14:58:34.401Z,30.70
2022-08-01T15:01:20.584Z,30.80
2022-08-01T15:04:09.863Z,30.90
2022-08-01T15:06:56.313Z,31.00
2022-08-01T15:09:43.625Z,31.10
2022-08-01T15:12:49.614Z,31.40
2022-08-01T15:15:37.089Z,31.80
2022-08-01T15:18:25.803Z,32.20
2022-08-01T15:21:29.301Z,32.50
2022-08-01T15:24:23.697Z,32.80
2022-08-01T15:27:11.149Z,33.30
2022-08-01T15:29:57.772Z,33.20
2022-08-01T15:32:44.529Z,32.90
2022-08-01T15:35:30.450Z,32.60
2022-08-01T15:38:16.494Z,32.50
2022-08-01T15:41:05.155Z,32.30
2022-08-01T15:43:55.790Z,32.10
2022-08-01T15:46:42.737Z,32.00
2022-08-01T15:49:29.184Z,32.10
2022-08-01T15:52:22.262Z,32.50
2022-08-01T15:55:10.861Z,32.80
2022-08-01T15:57:57.059Z,32.70
2022-08-01T16:00:43.057Z,32.70
2022-08-01T16:03:28.922Z,33.30
2022-08-01T16:06:28.074Z,34.50
2022-08-01T16:09:19.374Z,35.60
2022-08-01T16:12:06.517Z,36.10
2022-08-01T16:14:53.047Z,35.80
2022-08-01T16:17:42.051Z,35.70
2022-08-01T16:20:30.686Z,36.20
2022-08-01T16:23:17.377Z,36.10
2022-08-01T16:26:04.122Z,35.50
2022-08-01T16:28:58.349Z,35.40
2022-08-01T16:31:56.944Z,35.90
2022-08-01T16:34:46.709Z,36.90
2022-08-01T16:37:33.788Z,37.60
2022-08-01T16:40:20.033Z,37.60
2022-08-01T16:43:06.366Z,37.20
2022-08-01T16:45:54.245Z,37.20
2022-08-01T16:48:41.541Z,37.60
2022-08-01T16:51:28.073Z,38.30
2022-08-01T16:54:27.850Z,39.20
2022-08-01T16:57:14.733Z,40.10
2022-08-01T17:00:03.755Z,40.60
2022-08-01T17:02:51.423Z,40.90
2022-08-01T17:05:39.072Z,41.20
2022-08-01T17:08:25.374Z,41.40
2022-08-01T17:11:11.408Z,41.80
2022-08-01T17:13:57.356Z,42.10
2022-08-01T17:16:43.682Z,42.10
2022-08-01T17:19:33.216Z,42.00
2022-08-01T17:22:20.225Z,41.90
2022-08-01T17:25:15.770Z,41.60
2022-08-01T17:28:03.145Z,41.30
2022-08-01T17:30:49.580Z,40.70
2022-08-01T17:33:44.575Z,40.30
2022-08-01T17:36:32.555Z,40.10
2022-08-01T17:39:23.317Z,39.90
2022-08-01T17:42:11.017Z,39.30
2022-08-01T17:44:58.469Z,38.30
2022-08-01T17:47:50.840Z,37.20
2022-08-01T17:50:37.443Z,36.20
2022-08-01T17:53:24.038Z,34.90
2022-08-01T17:56:09.986Z,33.60
2022-08-01T17:58:59.058Z,32.60
2022-08-01T18:01:45.552Z,31.50
2022-08-01T18:04:33.923Z,30.50
2022-08-01T18:07:21.719Z,29.70
2022-08-01T18:10:11.716Z,29.10
2022-08-01T18:13:02.025Z,28.60
2022-08-01T18:15:48.687Z,28.10
2022-08-01T18:18:38.707Z,27.70
2022-08-01T18:21:25.032Z,27.40
2022-08-01T18:24:11.232Z,27.10
2022-08-01T18:26:58.741Z,26.80
2022-08-01T18:29:47.709Z,26.50
2022-08-01T18:32:34.862Z,26.20
2022-08-01T18:35:23.578Z,26.00
2022-08-01T18:38:19.266Z,25.80
2022-08-01T18:41:10.043Z,25.50
2022-08-01T18:44:05.851Z,25.40
2022-08-01T18:46:55.099Z,25.30
2022-08-01T18:49:41.549Z,25.20
2022-08-01T18:52:28.510Z,25.00
2022-08-01T18:55:19.750Z,24.90
2022-08-01T18:58:05.843Z,24.70
2022-08-01T19:00:52.029Z,24.70
2022-08-01T19:03:42.492Z,24.50
2022-08-01T19:06:28.822Z,24.40
2022-08-01T19:09:14.836Z,24.30
2022-08-01T19:12:07.699Z,24.20
2022-08-01T19:14:54.265Z,24.10
2022-08-01T19:17:40.098Z,24.10
2022-08-01T19:20:26.635Z,24.00
2022-08-01T19:23:34.072Z,23.90
2022-08-01T19:26:25.911Z,23.80
2022-08-01T19:29:17.485Z,23.70
2022-08-01T19:32:10.190Z,23.60
2022-08-01T19:35:13.134Z,23.50
2022-08-01T19:37:59.352Z,23.40
2022-08-01T19:40:45.378Z,23.40
2022-08-01T19:43:35.390Z,23.30
2022-08-01T19:46:24.975Z,23.20
2022-08-01T19:49:16.407Z,23.10
2022-08-01T19:52:03.956Z,23.00
2022-08-01T19:54:52.521Z,22.90
2022-08-01T19:57:46.206Z,22.80
2022-08-01T20:00:39.284Z,22.80
2022-08-01T20:03:27.980Z,22.70
2022-08-01T20:06:14.814Z,22.60
2022-08-01T20:09:02.269Z,22.60
2022-08-01T20:11:54.133Z,22.50
2022-08-01T20:14:42.278Z,22.40
2022-08-01T20:17:28.428Z,22.40
2022-08-01T20:20:14.552Z,22.30
2022-08-01T20:23:02.641Z,22.30
2022-08-01T20:25:51.731Z,22.20
2022-08-01T20:28:41.897Z,22.20
2022-08-01T20:31:42.758Z,22.20
2022-08-01T20:34:37.091Z,22.20
2022-08-01T20:38:03.946Z,22.10
2022-08-01T20:40:30.336Z,22.10
2022-08-01T20:43:26.063Z,22.00
2022-08-01T20:46:15.506Z,21.90
2022-08-01T20:49:01.543Z,21.80
2022-08-01T20:51:50.604Z,21.70
2022-08-01T20:54:36.704Z,21.70
2022-08-01T20:57:25.637Z,21.70
2022-08-01T21:00:12.126Z,21.70
2022-08-01T21:03:08.828Z,21.60
2022-08-01T21:06:05.604Z,21.60
2022-08-01T21:08:56.634Z,21.60
2022-08-01T21:11:57.302Z,21.60
2022-08-01T21:14:57.695Z,21.60
2022-08-01T21:18:07.759Z,21.60
2022-08-01T21:21:00.030Z,21.60
2022-08-01T21:23:58.138Z,21.50
2022-08-01T21:26:46.453Z,21.50
2022-08-01T21:29:34.363Z,21.50
2022-08-01T21:32:24.184Z,21.50
2022-08-01T21:35:16.013Z,21.50
2022-08-01T21:38:08.828Z,21.50
2022-08-01T21:40:55.867Z,21.40
2022-08-01T21:43:42.725Z,21.40
2022-08-01T21:46:30.589Z,21.40
2022-08-01T21:49:16.944Z,21.40
2022-08-01T21:52:16.189Z,21.40
2022-08-01T21:55:16.101Z,21.30
2022-08-01T21:58:22.489Z,21.30
2022-08-01T22:01:15.871Z,21.30
2022-08-01T22:04:06.597Z,21.20
2022-08-01T22:06:54.066Z,21.20
2022-08-01T22:09:49.230Z,21.20
2022-08-01T22:12:36.131Z,21.20
2022-08-01T22:15:44.463Z,21.20
2022-08-01T22:18:33.120Z,21.10
2022-08-01T22:21:19.645Z,21.10
2022-08-01T22:24:06.935Z,21.10
2022-08-01T22:26:55.440Z,21.10
2022-08-01T22:29:41.853Z,21.10
2022-08-01T22:32:30.608Z,21.10
2022-08-01T22:35:17.955Z,21.00
2022-08-01T22:38:04.367Z,21.00
2022-08-01T22:41:01.129Z,20.90
2022-08-01T22:44:03.358Z,20.90
2022-08-01T22:47:06.826Z,20.90
2022-08-01T22:50:05.979Z,20.90
2022-08-01T22:53:22.964Z,21.00
2022-08-01T22:56:12.742Z,21.00
2022-08-01T22:59:05.848Z,21.00
2022-08-01T23:01:52.353Z,21.00
2022-08-01T23:04:49.773Z,21.00
2022-08-01T23:07:45.189Z,21.00
2022-08-01T23:10:31.544Z,21.00
2022-08-01T23:13:19.611Z,20.90
2022-08-01T23:16:05.937Z,21.00
2022-08-01T23:18:55.102Z,20.90
2022-08-01T23:21:42.632Z,20.90
2022-08-01T23:24:36.324Z,20.90
2022-08-01T23:28:04.410Z,20.90
2022-08-01T23:30:37.848Z,20.90
2022-08-01T23:33:23.789Z,20.80
2022-08-01T23:36:09.819Z,20.80
2022-08-01T23:38:56.466Z,20.70
2022-08-01T23:41:57.922Z,20.70
2022-08-01T23:44:45.171Z,20.70
2022-08-01T23:47:31.131Z,20.60
2022-08-01T23:50:17.074Z,20.60
2022-08-01T23:53:03.209Z,20.50
2022-08-01T23:55:49.221Z,20.60
2022-08-01T23:58:36.083Z,20.50
